sensor_id;sensor_type;location;lat;lon;timestamp;temperature;humidity
6538;DHT22;3302;52.508;13.454;2022-11-11T00:01:03;10.10;99.90
6538;DHT22;3302;52.508;13.454;2022-11-11T00:03:30;10.10;99.90
6538;DHT22;3302;52.508;13.454;2022-11-11T00:06:08;10.10;99.90
6538;DHT22;3302;52.508;13.454;2022-11-11T00:08:34;10.10;99.90
6538;DHT22;3302;52.508;13.454;2022-11-11T00:11:02;10.00;99.90
6538;DHT22;3302;52.508;13.454;2022-11-11T00:13:28;10.00;99.90
6538;DHT22;3302;52.508;13.454;2022-11-11T00:15:54;10.00;99.90
6538;DHT22;3302;52.508;13.454;2022-11-11T00:18:20;10.00;99.90
6538;DHT22;3302;52.508;13.454;2022-11-11T00:21:12;10.00;99.90
6538;DHT22;3302;52.508;13.454;2022-11-11T00:23:56;10.00;99.90
6538;DHT22;3302;52.508;13.454;2022-11-11T00:26:40;9.90;99.90
6538;DHT22;3302;52.508;13.454;2022-11-11T00:29:06;9.90;99.90
6538;DHT22;3302;52.508;13.454;2022-11-11T00:31:34;9.90;99.90
6538;DHT22;3302;52.508;13.454;2022-11-11T00:34:00;9.80;99.90
6538;DHT22;3302;52.508;13.454;2022-11-11T00:36:26;9.80;99.90
6538;DHT22;3302;52.508;13.454;2022-11-11T00:38:52;9.80;99.90
6538;DHT22;3302;52.508;13.454;2022-11-11T00:41:23;9.80;99.90
6538;DHT22;3302;52.508;13.454;2022-11-11T00:43:51;9.80;99.90
6538;DHT22;3302;52.508;13.454;2022-11-11T00:46:17;9.70;99.90
6538;DHT22;3302;52.508;13.454;2022-11-11T00:49:01;9.70;99.90
6538;DHT22;3302;52.508;13.454;2022-11-11T00:51:45;9.80;99.90
6538;DHT22;3302;52.508;13.454;2022-11-11T00:54:11;9.70;99.90
6538;DHT22;3302;52.508;13.454;2022-11-11T00:56:38;9.80;99.90
6538;DHT22;3302;52.508;13.454;2022-11-11T00:59:05;9.70;99.90
6538;DHT22;3302;52.508;13.454;2022-11-11T01:01:35;9.70;99.90
6538;DHT22;3302;52.508;13.454;2022-11-11T01:04:02;9.70;99.90
6538;DHT22;3302;52.508;13.454;2022-11-11T01:06:28;9.70;99.90
6538;DHT22;3302;52.508;13.454;2022-11-11T01:08:53;9.70;99.90
6538;DHT22;3302;52.508;13.454;2022-11-11T01:11:21;9.60;99.90
6538;DHT22;3302;52.508;13.454;2022-11-11T01:13:47;9.60;99.90
6538;DHT22;3302;52.508;13.454;2022-11-11T01:16:22;9.60;99.90
6538;DHT22;3302;52.508;13.454;2022-11-11T01:18:49;9.60;99.90
6538;DHT22;3302;52.508;13.454;2022-11-11T01:21:20;9.60;99.90
6538;DHT22;3302;52.508;13.454;2022-11-11T01:23:47;9.60;99.90
6538;DHT22;3302;52.508;13.454;2022-11-11T01:26:23;9.60;99.90
6538;DHT22;3302;52.508;13.454;2022-11-11T01:28:50;9.60;99.90
6538;DHT22;3302;52.508;13.454;2022-11-11T01:31:17;9.60;99.90
6538;DHT22;3302;52.508;13.454;2022-11-11T01:33:43;9.60;99.90
6538;DHT22;3302;52.508;13.454;2022-11-11T01:36:15;9.50;99.90
6538;DHT22;3302;52.508;13.454;2022-11-11T01:38:42;9.50;99.90
6538;DHT22;3302;52.508;13.454;2022-11-11T01:41:11;9.60;99.90
6538;DHT22;3302;52.508;13.454;2022-11-11T01:43:56;9.60;99.90
6538;DHT22;3302;52.508;13.454;2022-11-11T01:46:46;9.50;99.90
6538;DHT22;3302;52.508;13.454;2022-11-11T01:50:06;9.50;99.90
6538;DHT22;3302;52.508;13.454;2022-11-11T01:52:35;9.50;99.90
6538;DHT22;3302;52.508;13.454;2022-11-11T01:55:12;9.50;99.90
6538;DHT22;3302;52.508;13.454;2022-11-11T01:57:52;9.60;99.90
6538;DHT22;3302;52.508;13.454;2022-11-11T02:00:20;9.60;99.90
6538;DHT22;3302;52.508;13.454;2022-11-11T02:02:55;9.60;99.90
6538;DHT22;3302;52.508;13.454;2022-11-11T02:05:24;9.50;99.90
6538;DHT22;3302;52.508;13.454;2022-11-11T02:08:14;9.50;99.90
6538;DHT22;3302;52.508;13.454;2022-11-11T02:11:01;9.50;99.90
6538;DHT22;3302;52.508;13.454;2022-11-11T02:13:27;9.50;99.90
6538;DHT22;3302;52.508;13.454;2022-11-11T02:16:12;9.50;99.90
6538;DHT22;3302;52.508;13.454;2022-11-11T02:18:37;9.50;99.90
6538;DHT22;3302;52.508;13.454;2022-11-11T02:21:03;9.50;99.90
6538;DHT22;3302;52.508;13.454;2022-11-11T02:25:55;9.50;99.90
6538;DHT22;3302;52.508;13.454;2022-11-11T02:28:24;9.50;99.90
6538;DHT22;3302;52.508;13.454;2022-11-11T02:30:52;9.50;99.90
6538;DHT22;3302;52.508;13.454;2022-11-11T02:33:17;9.50;99.90
6538;DHT22;3302;52.508;13.454;2022-11-11T02:35:47;9.50;99.90
6538;DHT22;3302;52.508;13.454;2022-11-11T02:38:23;9.50;99.90
6538;DHT22;3302;52.508;13.454;2022-11-11T02:40:50;9.40;99.90
6538;DHT22;3302;52.508;13.454;2022-11-11T02:43:35;9.40;99.90
6538;DHT22;3302;52.508;13.454;2022-11-11T02:46:03;9.40;99.90
6538;DHT22;3302;52.508;13.454;2022-11-11T02:48:29;9.40;99.90
6538;DHT22;3302;52.508;13.454;2022-11-11T02:50:54;9.30;99.90
6538;DHT22;3302;52.508;13.454;2022-11-11T02:53:21;9.30;99.90
6538;DHT22;3302;52.508;13.454;2022-11-11T02:55:47;9.40;99.90
6538;DHT22;3302;52.508;13.454;2022-11-11T02:58:14;9.30;99.90
6538;DHT22;3302;52.508;13.454;2022-11-11T03:00:40;9.30;99.90
6538;DHT22;3302;52.508;13.454;2022-11-11T03:03:07;9.20;99.90
6538;DHT22;3302;52.508;13.454;2022-11-11T03:05:34;9.20;99.90
6538;DHT22;3302;52.508;13.454;2022-11-11T03:08:00;9.20;99.90
6538;DHT22;3302;52.508;13.454;2022-11-11T03:10:26;9.20;99.90
6538;DHT22;3302;52.508;13.454;2022-11-11T03:12:51;9.20;99.90
6538;DHT22;3302;52.508;13.454;2022-11-11T03:15:17;9.20;99.90
6538;DHT22;3302;52.508;13.454;2022-11-11T03:17:43;9.20;99.90
6538;DHT22;3302;52.508;13.454;2022-11-11T03:20:17;9.20;99.90
6538;DHT22;3302;52.508;13.454;2022-11-11T03:23:03;9.30;99.90
6538;DHT22;3302;52.508;13.454;2022-11-11T03:25:30;9.30;99.90
6538;DHT22;3302;52.508;13.454;2022-11-11T03:28:26;9.20;99.90
6538;DHT22;3302;52.508;13.454;2022-11-11T03:30:52;9.30;99.90
6538;DHT22;3302;52.508;13.454;2022-11-11T03:33:18;9.20;99.90
6538;DHT22;3302;52.508;13.454;2022-11-11T03:35:47;9.20;99.90
6538;DHT22;3302;52.508;13.454;2022-11-11T03:38:13;9.20;99.90
6538;DHT22;3302;52.508;13.454;2022-11-11T03:40:58;9.30;99.90
6538;DHT22;3302;52.508;13.454;2022-11-11T03:43:26;9.20;99.90
6538;DHT22;3302;52.508;13.454;2022-11-11T03:45:57;9.20;99.90
6538;DHT22;3302;52.508;13.454;2022-11-11T03:48:24;9.20;99.90
6538;DHT22;3302;52.508;13.454;2022-11-11T03:50:50;9.20;99.90
6538;DHT22;3302;52.508;13.454;2022-11-11T03:53:18;9.20;99.90
6538;DHT22;3302;52.508;13.454;2022-11-11T03:55:48;9.20;99.90
6538;DHT22;3302;52.508;13.454;2022-11-11T03:58:14;9.20;99.90
6538;DHT22;3302;52.508;13.454;2022-11-11T04:00:42;9.20;99.90
6538;DHT22;3302;52.508;13.454;2022-11-11T04:03:13;9.20;99.90
6538;DHT22;3302;52.508;13.454;2022-11-11T04:05:58;9.20;99.90
6538;DHT22;3302;52.508;13.454;2022-11-11T04:08:43;9.20;99.90
6538;DHT22;3302;52.508;13.454;2022-11-11T04:11:30;9.20;99.90
6538;DHT22;3302;52.508;13.454;2022-11-11T04:14:00;9.20;99.90
6538;DHT22;3302;52.508;13.454;2022-11-11T04:16:44;9.20;99.90
6538;DHT22;3302;52.508;13.454;2022-11-11T04:19:10;9.20;99.90
6538;DHT22;3302;52.508;13.454;2022-11-11T04:21:54;9.20;99.90
6538;DHT22;3302;52.508;13.454;2022-11-11T04:24:20;9.20;99.90
6538;DHT22;3302;52.508;13.454;2022-11-11T04:27:15;9.20;99.90
6538;DHT22;3302;52.508;13.454;2022-11-11T04:29:41;9.20;99.90
6538;DHT22;3302;52.508;13.454;2022-11-11T04:32:08;9.20;99.90
6538;DHT22;3302;52.508;13.454;2022-11-11T04:34:54;9.20;99.90
6538;DHT22;3302;52.508;13.454;2022-11-11T04:37:22;9.20;99.90
6538;DHT22;3302;52.508;13.454;2022-11-11T04:39:49;9.10;99.90
6538;DHT22;3302;52.508;13.454;2022-11-11T04:42:33;9.10;99.90
6538;DHT22;3302;52.508;13.454;2022-11-11T04:45:00;9.10;99.90
6538;DHT22;3302;52.508;13.454;2022-11-11T04:50:34;9.10;99.90
6538;DHT22;3302;52.508;13.454;2022-11-11T04:53:02;9.10;99.90
6538;DHT22;3302;52.508;13.454;2022-11-11T04:55:28;9.10;99.90
6538;DHT22;3302;52.508;13.454;2022-11-11T04:58:13;9.10;99.90
6538;DHT22;3302;52.508;13.454;2022-11-11T05:00:39;9.00;99.90
6538;DHT22;3302;52.508;13.454;2022-11-11T05:03:05;9.00;99.90
6538;DHT22;3302;52.508;13.454;2022-11-11T05:08:37;9.10;99.90
6538;DHT22;3302;52.508;13.454;2022-11-11T05:11:26;9.10;99.90
6538;DHT22;3302;52.508;13.454;2022-11-11T05:13:54;9.10;99.90
6538;DHT22;3302;52.508;13.454;2022-11-11T05:16:57;9.10;99.90
6538;DHT22;3302;52.508;13.454;2022-11-11T05:19:42;9.10;99.90
6538;DHT22;3302;52.508;13.454;2022-11-11T05:22:31;9.10;99.90
6538;DHT22;3302;52.508;13.454;2022-11-11T05:24:57;9.10;99.90
6538;DHT22;3302;52.508;13.454;2022-11-11T05:27:42;9.10;99.90
6538;DHT22;3302;52.508;13.454;2022-11-11T05:30:10;9.00;99.90
6538;DHT22;3302;52.508;13.454;2022-11-11T05:32:36;9.00;99.90
6538;DHT22;3302;52.508;13.454;2022-11-11T05:35:03;9.00;99.90
6538;DHT22;3302;52.508;13.454;2022-11-11T05:37:29;9.00;99.90
6538;DHT22;3302;52.508;13.454;2022-11-11T05:39:55;9.10;99.90
6538;DHT22;3302;52.508;13.454;2022-11-11T05:42:21;9.00;99.90
6538;DHT22;3302;52.508;13.454;2022-11-11T05:44:47;9.00;99.90
6538;DHT22;3302;52.508;13.454;2022-11-11T05:47:14;9.00;99.90
6538;DHT22;3302;52.508;13.454;2022-11-11T05:49:40;9.10;99.90
6538;DHT22;3302;52.508;13.454;2022-11-11T05:52:06;9.00;99.90
6538;DHT22;3302;52.508;13.454;2022-11-11T05:54:32;9.00;99.90
6538;DHT22;3302;52.508;13.454;2022-11-11T05:56:57;9.00;99.90
6538;DHT22;3302;52.508;13.454;2022-11-11T05:59:25;9.00;99.90
6538;DHT22;3302;52.508;13.454;2022-11-11T06:01:50;9.00;99.90
6538;DHT22;3302;52.508;13.454;2022-11-11T06:04:16;9.00;99.90
6538;DHT22;3302;52.508;13.454;2022-11-11T06:06:42;8.90;99.90
6538;DHT22;3302;52.508;13.454;2022-11-11T06:09:08;8.90;99.90
6538;DHT22;3302;52.508;13.454;2022-11-11T06:11:34;8.90;99.90
6538;DHT22;3302;52.508;13.454;2022-11-11T06:13:59;8.90;99.90
6538;DHT22;3302;52.508;13.454;2022-11-11T06:16:25;8.90;99.90
6538;DHT22;3302;52.508;13.454;2022-11-11T06:18:51;8.80;99.90
6538;DHT22;3302;52.508;13.454;2022-11-11T06:21:17;8.90;99.90
6538;DHT22;3302;52.508;13.454;2022-11-11T06:23:43;8.90;99.90
6538;DHT22;3302;52.508;13.454;2022-11-11T06:26:11;8.90;99.90
6538;DHT22;3302;52.508;13.454;2022-11-11T06:28:38;8.80;99.90
6538;DHT22;3302;52.508;13.454;2022-11-11T06:31:05;8.90;99.90
6538;DHT22;3302;52.508;13.454;2022-11-11T06:33:33;8.90;99.90
6538;DHT22;3302;52.508;13.454;2022-11-11T06:36:00;8.80;99.90
6538;DHT22;3302;52.508;13.454;2022-11-11T06:38:26;8.90;99.90
6538;DHT22;3302;52.508;13.454;2022-11-11T06:40:52;8.90;99.90
6538;DHT22;3302;52.508;13.454;2022-11-11T06:43:17;8.90;99.90
6538;DHT22;3302;52.508;13.454;2022-11-11T06:45:44;8.90;99.90
6538;DHT22;3302;52.508;13.454;2022-11-11T06:48:11;8.90;99.90
6538;DHT22;3302;52.508;13.454;2022-11-11T06:50:37;8.90;99.90
6538;DHT22;3302;52.508;13.454;2022-11-11T06:53:10;8.90;99.90
6538;DHT22;3302;52.508;13.454;2022-11-11T06:55:37;8.90;99.90
6538;DHT22;3302;52.508;13.454;2022-11-11T06:58:07;8.90;99.90
6538;DHT22;3302;52.508;13.454;2022-11-11T07:00:33;8.90;99.90
6538;DHT22;3302;52.508;13.454;2022-11-11T07:03:03;8.90;99.90
6538;DHT22;3302;52.508;13.454;2022-11-11T07:05:28;8.90;99.90
6538;DHT22;3302;52.508;13.454;2022-11-11T07:07:54;8.90;99.90
6538;DHT22;3302;52.508;13.454;2022-11-11T07:10:20;8.90;99.90
6538;DHT22;3302;52.508;13.454;2022-11-11T07:12:46;9.00;99.90
6538;DHT22;3302;52.508;13.454;2022-11-11T07:15:12;9.00;99.90
6538;DHT22;3302;52.508;13.454;2022-11-11T07:17:38;9.00;99.90
6538;DHT22;3302;52.508;13.454;2022-11-11T07:20:04;9.00;99.90
6538;DHT22;3302;52.508;13.454;2022-11-11T07:22:30;9.00;99.90
6538;DHT22;3302;52.508;13.454;2022-11-11T07:24:56;9.00;99.90
6538;DHT22;3302;52.508;13.454;2022-11-11T07:27:22;9.10;99.90
6538;DHT22;3302;52.508;13.454;2022-11-11T07:29:47;9.10;99.90
6538;DHT22;3302;52.508;13.454;2022-11-11T07:32:14;9.10;99.90
6538;DHT22;3302;52.508;13.454;2022-11-11T07:34:42;9.20;99.90
6538;DHT22;3302;52.508;13.454;2022-11-11T07:37:09;9.20;99.90
6538;DHT22;3302;52.508;13.454;2022-11-11T07:39:35;9.20;99.90
6538;DHT22;3302;52.508;13.454;2022-11-11T07:42:01;9.20;99.90
6538;DHT22;3302;52.508;13.454;2022-11-11T07:44:26;9.30;99.90
6538;DHT22;3302;52.508;13.454;2022-11-11T07:46:52;9.20;99.90
6538;DHT22;3302;52.508;13.454;2022-11-11T07:49:18;9.20;99.90
6538;DHT22;3302;52.508;13.454;2022-11-11T07:51:44;9.20;99.90
6538;DHT22;3302;52.508;13.454;2022-11-11T07:54:09;9.20;99.90
6538;DHT22;3302;52.508;13.454;2022-11-11T07:56:35;9.20;99.90
6538;DHT22;3302;52.508;13.454;2022-11-11T07:59:01;9.20;99.90
6538;DHT22;3302;52.508;13.454;2022-11-11T08:01:27;9.20;99.90
6538;DHT22;3302;52.508;13.454;2022-11-11T08:03:53;9.20;99.90
6538;DHT22;3302;52.508;13.454;2022-11-11T08:06:20;9.20;99.90
6538;DHT22;3302;52.508;13.454;2022-11-11T08:08:47;9.30;99.90
6538;DHT22;3302;52.508;13.454;2022-11-11T08:11:14;9.30;99.90
6538;DHT22;3302;52.508;13.454;2022-11-11T08:13:40;9.30;99.90
6538;DHT22;3302;52.508;13.454;2022-11-11T08:16:12;9.30;99.90
6538;DHT22;3302;52.508;13.454;2022-11-11T08:18:40;9.40;99.90
6538;DHT22;3302;52.508;13.454;2022-11-11T08:21:06;9.40;99.90
6538;DHT22;3302;52.508;13.454;2022-11-11T08:23:32;9.40;99.90
6538;DHT22;3302;52.508;13.454;2022-11-11T08:26:03;9.40;99.90
6538;DHT22;3302;52.508;13.454;2022-11-11T08:28:32;9.50;99.90
6538;DHT22;3302;52.508;13.454;2022-11-11T08:31:00;9.50;99.90
6538;DHT22;3302;52.508;13.454;2022-11-11T08:33:27;9.60;99.90
6538;DHT22;3302;52.508;13.454;2022-11-11T08:35:54;9.60;99.90
6538;DHT22;3302;52.508;13.454;2022-11-11T08:38:23;9.70;99.90
6538;DHT22;3302;52.508;13.454;2022-11-11T08:40:52;9.70;99.90
6538;DHT22;3302;52.508;13.454;2022-11-11T08:43:18;9.80;99.90
6538;DHT22;3302;52.508;13.454;2022-11-11T08:45:44;9.80;99.90
6538;DHT22;3302;52.508;13.454;2022-11-11T08:48:11;9.80;99.90
6538;DHT22;3302;52.508;13.454;2022-11-11T08:50:37;9.90;99.90
6538;DHT22;3302;52.508;13.454;2022-11-11T08:53:08;10.00;99.90
6538;DHT22;3302;52.508;13.454;2022-11-11T08:55:35;10.00;99.90
6538;DHT22;3302;52.508;13.454;2022-11-11T08:58:05;10.10;99.90
6538;DHT22;3302;52.508;13.454;2022-11-11T09:00:32;10.20;99.90
6538;DHT22;3302;52.508;13.454;2022-11-11T09:03:02;10.20;99.90
6538;DHT22;3302;52.508;13.454;2022-11-11T09:05:29;10.30;99.90
6538;DHT22;3302;52.508;13.454;2022-11-11T09:07:55;10.30;99.90
6538;DHT22;3302;52.508;13.454;2022-11-11T09:10:21;10.40;99.90
6538;DHT22;3302;52.508;13.454;2022-11-11T09:12:47;10.40;99.90
6538;DHT22;3302;52.508;13.454;2022-11-11T09:15:13;10.50;99.90
6538;DHT22;3302;52.508;13.454;2022-11-11T09:17:38;10.50;99.90
6538;DHT22;3302;52.508;13.454;2022-11-11T09:20:10;10.60;99.90
6538;DHT22;3302;52.508;13.454;2022-11-11T09:22:43;10.70;99.90
6538;DHT22;3302;52.508;13.454;2022-11-11T09:25:09;10.70;99.90
6538;DHT22;3302;52.508;13.454;2022-11-11T09:27:35;10.80;99.90
6538;DHT22;3302;52.508;13.454;2022-11-11T09:30:00;10.80;99.90
6538;DHT22;3302;52.508;13.454;2022-11-11T09:32:26;10.80;99.90
6538;DHT22;3302;52.508;13.454;2022-11-11T09:34:52;10.80;99.90
6538;DHT22;3302;52.508;13.454;2022-11-11T09:37:20;10.80;99.90
6538;DHT22;3302;52.508;13.454;2022-11-11T09:39:46;10.90;99.90
6538;DHT22;3302;52.508;13.454;2022-11-11T09:42:29;10.90;99.90
6538;DHT22;3302;52.508;13.454;2022-11-11T09:50:19;11.00;99.90
6538;DHT22;3302;52.508;13.454;2022-11-11T09:53:00;11.00;99.90
6538;DHT22;3302;52.508;13.454;2022-11-11T09:56:08;11.00;99.90
6538;DHT22;3302;52.508;13.454;2022-11-11T09:58:52;11.00;99.90
6538;DHT22;3302;52.508;13.454;2022-11-11T10:01:25;11.10;99.90
6538;DHT22;3302;52.508;13.454;2022-11-11T10:06:37;11.20;99.80
6538;DHT22;3302;52.508;13.454;2022-11-11T10:09:17;11.20;99.80
6538;DHT22;3302;52.508;13.454;2022-11-11T10:14:12;11.20;99.60
6538;DHT22;3302;52.508;13.454;2022-11-11T10:22:34;11.20;99.60
6538;DHT22;3302;52.508;13.454;2022-11-11T10:27:28;11.40;99.40
6538;DHT22;3302;52.508;13.454;2022-11-11T10:29:55;11.40;99.80
6538;DHT22;3302;52.508;13.454;2022-11-11T10:32:27;11.40;99.50
6538;DHT22;3302;52.508;13.454;2022-11-11T10:35:08;11.40;99.50
6538;DHT22;3302;52.508;13.454;2022-11-11T10:37:40;11.40;99.30
6538;DHT22;3302;52.508;13.454;2022-11-11T10:42:40;11.50;99.30
6538;DHT22;3302;52.508;13.454;2022-11-11T10:45:45;11.50;99.30
6538;DHT22;3302;52.508;13.454;2022-11-11T10:48:16;11.50;99.10
6538;DHT22;3302;52.508;13.454;2022-11-11T10:50:48;11.60;98.90
6538;DHT22;3302;52.508;13.454;2022-11-11T10:58:54;11.70;98.10
6538;DHT22;3302;52.508;13.454;2022-11-11T11:01:34;11.80;98.50
6538;DHT22;3302;52.508;13.454;2022-11-11T11:04:09;11.70;98.50
6538;DHT22;3302;52.508;13.454;2022-11-11T11:06:43;11.80;98.60
6538;DHT22;3302;52.508;13.454;2022-11-11T11:11:55;11.80;98.60
6538;DHT22;3302;52.508;13.454;2022-11-11T11:14:29;11.80;98.40
6538;DHT22;3302;52.508;13.454;2022-11-11T11:16:59;11.90;98.40
6538;DHT22;3302;52.508;13.454;2022-11-11T11:19:27;11.90;98.30
6538;DHT22;3302;52.508;13.454;2022-11-11T11:24:28;11.90;98.20
6538;DHT22;3302;52.508;13.454;2022-11-11T11:27:02;11.90;98.10
6538;DHT22;3302;52.508;13.454;2022-11-11T11:29:37;12.00;98.10
6538;DHT22;3302;52.508;13.454;2022-11-11T11:34:50;12.00;98.10
6538;DHT22;3302;52.508;13.454;2022-11-11T11:37:18;12.00;97.70
6538;DHT22;3302;52.508;13.454;2022-11-11T11:39:44;12.10;97.60
6538;DHT22;3302;52.508;13.454;2022-11-11T11:44:52;12.10;97.20
6538;DHT22;3302;52.508;13.454;2022-11-11T11:55:43;12.20;96.90
6538;DHT22;3302;52.508;13.454;2022-11-11T12:01:19;12.30;96.90
6538;DHT22;3302;52.508;13.454;2022-11-11T12:17:40;12.30;96.70
6538;DHT22;3302;52.508;13.454;2022-11-11T12:20:21;12.30;96.80
6538;DHT22;3302;52.508;13.454;2022-11-11T12:23:02;12.40;96.50
6538;DHT22;3302;52.508;13.454;2022-11-11T12:26:31;12.30;96.40
6538;DHT22;3302;52.508;13.454;2022-11-11T12:43:00;12.60;95.50
6538;DHT22;3302;52.508;13.454;2022-11-11T12:45:17;12.70;95.40
6538;DHT22;3302;52.508;13.454;2022-11-11T12:50:43;12.80;95.10
6538;DHT22;3302;52.508;13.454;2022-11-11T12:53:33;12.80;95.00
6538;DHT22;3302;52.508;13.454;2022-11-11T12:58:59;12.80;95.40
6538;DHT22;3302;52.508;13.454;2022-11-11T13:01:55;12.80;95.30
6538;DHT22;3302;52.508;13.454;2022-11-11T13:04:52;12.80;95.40
6538;DHT22;3302;52.508;13.454;2022-11-11T13:15:58;12.60;95.90
6538;DHT22;3302;52.508;13.454;2022-11-11T13:18:29;12.70;96.50
6538;DHT22;3302;52.508;13.454;2022-11-11T13:20:58;12.60;95.70
6538;DHT22;3302;52.508;13.454;2022-11-11T13:23:25;12.60;95.90
6538;DHT22;3302;52.508;13.454;2022-11-11T13:26:04;12.60;95.90
6538;DHT22;3302;52.508;13.454;2022-11-11T13:28:41;12.60;95.80
6538;DHT22;3302;52.508;13.454;2022-11-11T13:33:47;12.60;95.80
6538;DHT22;3302;52.508;13.454;2022-11-11T13:36:20;12.60;95.90
6538;DHT22;3302;52.508;13.454;2022-11-11T13:38:58;12.60;95.90
6538;DHT22;3302;52.508;13.454;2022-11-11T13:41:32;12.60;95.80
6538;DHT22;3302;52.508;13.454;2022-11-11T13:44:02;12.60;95.90
6538;DHT22;3302;52.508;13.454;2022-11-11T13:46:37;12.60;95.80
6538;DHT22;3302;52.508;13.454;2022-11-11T13:49:07;12.60;95.80
6538;DHT22;3302;52.508;13.454;2022-11-11T13:54:06;12.60;95.90
6538;DHT22;3302;52.508;13.454;2022-11-11T13:56:51;12.60;95.90
6538;DHT22;3302;52.508;13.454;2022-11-11T13:59:23;12.50;96.00
6538;DHT22;3302;52.508;13.454;2022-11-11T14:02:24;12.50;96.10
6538;DHT22;3302;52.508;13.454;2022-11-11T14:12:47;12.50;96.50
6538;DHT22;3302;52.508;13.454;2022-11-11T14:17:57;12.50;96.70
6538;DHT22;3302;52.508;13.454;2022-11-11T14:20:38;12.50;96.70
6538;DHT22;3302;52.508;13.454;2022-11-11T14:25:43;12.40;96.60
6538;DHT22;3302;52.508;13.454;2022-11-11T14:28:29;12.40;96.80
6538;DHT22;3302;52.508;13.454;2022-11-11T14:31:23;12.40;96.80
6538;DHT22;3302;52.508;13.454;2022-11-11T14:36:23;12.40;97.00
6538;DHT22;3302;52.508;13.454;2022-11-11T14:47:17;12.40;97.10
6538;DHT22;3302;52.508;13.454;2022-11-11T14:49:55;12.30;97.20
6538;DHT22;3302;52.508;13.454;2022-11-11T14:52:41;12.30;97.20
6538;DHT22;3302;52.508;13.454;2022-11-11T14:55:20;12.30;97.20
6538;DHT22;3302;52.508;13.454;2022-11-11T14:57:48;12.30;97.20
6538;DHT22;3302;52.508;13.454;2022-11-11T15:03:07;12.20;97.40
6538;DHT22;3302;52.508;13.454;2022-11-11T15:08:24;12.20;97.50
6538;DHT22;3302;52.508;13.454;2022-11-11T15:14:09;12.10;97.90
6538;DHT22;3302;52.508;13.454;2022-11-11T15:19:51;12.10;97.90
6538;DHT22;3302;52.508;13.454;2022-11-11T15:33:40;11.90;98.20
6538;DHT22;3302;52.508;13.454;2022-11-11T15:36:30;11.90;98.40
6538;DHT22;3302;52.508;13.454;2022-11-11T15:39:04;11.90;98.40
6538;DHT22;3302;52.508;13.454;2022-11-11T15:41:35;11.90;98.40
6538;DHT22;3302;52.508;13.454;2022-11-11T15:44:02;11.80;98.60
6538;DHT22;3302;52.508;13.454;2022-11-11T15:46:35;11.80;98.70
6538;DHT22;3302;52.508;13.454;2022-11-11T15:49:03;11.80;98.70
6538;DHT22;3302;52.508;13.454;2022-11-11T15:51:31;11.80;98.80
6538;DHT22;3302;52.508;13.454;2022-11-11T15:56:44;11.70;98.90
6538;DHT22;3302;52.508;13.454;2022-11-11T15:59:17;11.70;99.00
6538;DHT22;3302;52.508;13.454;2022-11-11T16:01:43;11.70;99.20
6538;DHT22;3302;52.508;13.454;2022-11-11T16:04:17;11.70;99.20
6538;DHT22;3302;52.508;13.454;2022-11-11T16:06:45;11.70;99.40
6538;DHT22;3302;52.508;13.454;2022-11-11T16:09:13;11.60;99.30
6538;DHT22;3302;52.508;13.454;2022-11-11T16:11:41;11.60;99.50
6538;DHT22;3302;52.508;13.454;2022-11-11T16:14:19;11.60;99.50
6538;DHT22;3302;52.508;13.454;2022-11-11T16:16:47;11.60;99.60
6538;DHT22;3302;52.508;13.454;2022-11-11T16:21:53;11.50;99.80
6538;DHT22;3302;52.508;13.454;2022-11-11T16:24:26;11.50;99.90
6538;DHT22;3302;52.508;13.454;2022-11-11T16:26:52;11.50;99.90
6538;DHT22;3302;52.508;13.454;2022-11-11T16:29:19;11.50;99.90
6538;DHT22;3302;52.508;13.454;2022-11-11T16:31:47;11.50;99.90
6538;DHT22;3302;52.508;13.454;2022-11-11T16:36:58;11.50;99.90
6538;DHT22;3302;52.508;13.454;2022-11-11T16:39:28;11.50;99.90
6538;DHT22;3302;52.508;13.454;2022-11-11T16:41:56;11.50;99.90
6538;DHT22;3302;52.508;13.454;2022-11-11T16:50:11;11.50;99.90
6538;DHT22;3302;52.508;13.454;2022-11-11T16:52:44;11.40;99.90
6538;DHT22;3302;52.508;13.454;2022-11-11T16:55:27;11.40;99.90
6538;DHT22;3302;52.508;13.454;2022-11-11T16:57:57;11.40;99.90
6538;DHT22;3302;52.508;13.454;2022-11-11T17:00:24;11.40;99.90
6538;DHT22;3302;52.508;13.454;2022-11-11T17:03:14;11.40;99.90
6538;DHT22;3302;52.508;13.454;2022-11-11T17:05:54;11.40;99.90
6538;DHT22;3302;52.508;13.454;2022-11-11T17:08:48;11.50;99.90
6538;DHT22;3302;52.508;13.454;2022-11-11T17:14:04;11.40;99.90
6538;DHT22;3302;52.508;13.454;2022-11-11T17:16:31;11.50;99.90
6538;DHT22;3302;52.508;13.454;2022-11-11T17:19:01;11.50;99.90
6538;DHT22;3302;52.508;13.454;2022-11-11T17:21:27;11.40;99.90
6538;DHT22;3302;52.508;13.454;2022-11-11T17:23:53;11.50;99.90
6538;DHT22;3302;52.508;13.454;2022-11-11T17:26:19;11.50;99.90
6538;DHT22;3302;52.508;13.454;2022-11-11T17:28:44;11.50;99.90
6538;DHT22;3302;52.508;13.454;2022-11-11T17:31:11;11.50;99.90
6538;DHT22;3302;52.508;13.454;2022-11-11T17:33:37;11.40;99.90
6538;DHT22;3302;52.508;13.454;2022-11-11T17:36:04;11.30;99.90
6538;DHT22;3302;52.508;13.454;2022-11-11T17:38:35;11.20;99.90
6538;DHT22;3302;52.508;13.454;2022-11-11T17:41:02;11.20;99.90
6538;DHT22;3302;52.508;13.454;2022-11-11T17:43:28;11.20;99.90
6538;DHT22;3302;52.508;13.454;2022-11-11T17:45:55;11.20;99.90
6538;DHT22;3302;52.508;13.454;2022-11-11T17:48:21;11.30;99.90
6538;DHT22;3302;52.508;13.454;2022-11-11T17:50:47;11.30;99.90
6538;DHT22;3302;52.508;13.454;2022-11-11T17:53:12;11.20;99.90
6538;DHT22;3302;52.508;13.454;2022-11-11T17:55:38;11.20;99.90
6538;DHT22;3302;52.508;13.454;2022-11-11T17:58:04;11.20;99.90
6538;DHT22;3302;52.508;13.454;2022-11-11T18:00:30;11.20;99.90
6538;DHT22;3302;52.508;13.454;2022-11-11T18:02:56;11.20;99.90
6538;DHT22;3302;52.508;13.454;2022-11-11T18:05:21;11.20;99.90
6538;DHT22;3302;52.508;13.454;2022-11-11T18:07:47;11.10;99.90
6538;DHT22;3302;52.508;13.454;2022-11-11T18:10:13;11.10;99.90
6538;DHT22;3302;52.508;13.454;2022-11-11T18:12:39;11.10;99.90
6538;DHT22;3302;52.508;13.454;2022-11-11T18:15:06;11.00;99.90
6538;DHT22;3302;52.508;13.454;2022-11-11T18:17:33;11.00;99.90
6538;DHT22;3302;52.508;13.454;2022-11-11T18:19:58;11.00;99.90
6538;DHT22;3302;52.508;13.454;2022-11-11T18:22:24;10.90;99.90
6538;DHT22;3302;52.508;13.454;2022-11-11T18:24:51;10.90;99.90
6538;DHT22;3302;52.508;13.454;2022-11-11T18:27:17;10.90;99.90
6538;DHT22;3302;52.508;13.454;2022-11-11T18:29:43;10.90;99.90
6538;DHT22;3302;52.508;13.454;2022-11-11T18:32:08;10.80;99.90
6538;DHT22;3302;52.508;13.454;2022-11-11T18:34:35;10.80;99.90
6538;DHT22;3302;52.508;13.454;2022-11-11T18:37:01;10.80;99.90
6538;DHT22;3302;52.508;13.454;2022-11-11T18:39:27;10.80;99.90
6538;DHT22;3302;52.508;13.454;2022-11-11T18:41:53;10.80;99.90
6538;DHT22;3302;52.508;13.454;2022-11-11T18:44:20;10.90;99.90
6538;DHT22;3302;52.508;13.454;2022-11-11T18:46:46;10.80;99.90
6538;DHT22;3302;52.508;13.454;2022-11-11T18:49:12;10.80;99.90
6538;DHT22;3302;52.508;13.454;2022-11-11T18:51:39;10.70;99.90
6538;DHT22;3302;52.508;13.454;2022-11-11T18:54:05;10.70;99.90
6538;DHT22;3302;52.508;13.454;2022-11-11T18:56:34;10.70;99.90
6538;DHT22;3302;52.508;13.454;2022-11-11T18:59:01;10.70;99.90
6538;DHT22;3302;52.508;13.454;2022-11-11T19:01:29;10.70;99.90
6538;DHT22;3302;52.508;13.454;2022-11-11T19:04:03;10.70;99.90
6538;DHT22;3302;52.508;13.454;2022-11-11T19:06:31;10.60;99.90